createdAt,value
2019-03-13T00:00:16.001Z,21.59
2019-03-13T00:02:42.003Z,21.59
2019-03-13T00:05:07.995Z,21.59
2019-03-13T00:07:33.999Z,21.59
2019-03-13T00:09:59.992Z,21.58
2019-03-13T00:12:25.994Z,21.58
2019-03-13T00:14:51.995Z,21.57
2019-03-13T00:17:17.992Z,21.58
2019-03-13T00:19:43.987Z,21.57
2019-03-13T00:22:10.009Z,21.57
2019-03-13T00:24:36.010Z,21.56
2019-03-13T00:27:02.020Z,21.57
2019-03-13T00:29:28.020Z,21.57
2019-03-13T00:31:54.015Z,21.57
2019-03-13T00:34:20.017Z,21.56
2019-03-13T00:36:46.018Z,21.55
2019-03-13T00:39:12.022Z,21.55
2019-03-13T00:41:38.016Z,21.55
2019-03-13T00:44:04.039Z,21.55
2019-03-13T00:46:30.040Z,21.55
2019-03-13T00:48:56.036Z,21.54
2019-03-13T00:51:22.039Z,21.54
2019-03-13T00:53:48.036Z,21.54
2019-03-13T00:56:14.041Z,21.53
2019-03-13T00:58:40.032Z,21.53
2019-03-13T01:01:06.051Z,21.53
2019-03-13T01:03:32.047Z,21.53
2019-03-13T01:05:58.041Z,21.52
2019-03-13T01:08:24.044Z,21.53
2019-03-13T01:10:50.038Z,21.53
2019-03-13T01:13:16.131Z,21.52
2019-03-13T01:15:42.124Z,21.52
2019-03-13T01:18:08.122Z,21.51
2019-03-13T01:20:34.121Z,21.52
2019-03-13T01:23:00.144Z,21.51
2019-03-13T01:25:26.139Z,21.51
2019-03-13T01:27:52.131Z,21.51
2019-03-13T01:30:18.132Z,21.52
2019-03-13T01:32:44.136Z,21.51
2019-03-13T01:35:10.138Z,21.51
2019-03-13T01:37:36.130Z,21.50
2019-03-13T01:40:02.132Z,21.51
2019-03-13T01:42:28.122Z,21.50
2019-03-13T01:44:54.123Z,21.50
2019-03-13T01:47:20.118Z,21.49
2019-03-13T01:49:46.142Z,21.50
2019-03-13T01:52:12.136Z,21.49
2019-03-13T01:54:38.126Z,21.49
2019-03-13T01:57:04.156Z,21.48
2019-03-13T01:59:30.146Z,21.49
2019-03-13T02:01:56.148Z,21.48
2019-03-13T02:04:22.163Z,21.49
2019-03-13T02:06:48.154Z,21.48
2019-03-13T02:09:14.159Z,21.48
2019-03-13T02:11:40.153Z,21.48
2019-03-13T02:14:06.152Z,21.47
2019-03-13T02:16:32.150Z,21.47
2019-03-13T02:18:58.151Z,21.47
2019-03-13T02:21:24.147Z,21.47
2019-03-13T02:23:50.171Z,21.46
2019-03-13T02:26:16.174Z,21.46
2019-03-13T02:28:42.167Z,21.46
2019-03-13T02:31:08.173Z,21.46
2019-03-13T02:33:34.159Z,21.45
2019-03-13T02:36:00.164Z,21.46
2019-03-13T02:38:26.158Z,21.44
2019-03-13T02:40:52.166Z,21.45
2019-03-13T02:43:18.153Z,21.44
2019-03-13T02:45:44.151Z,21.44
2019-03-13T02:48:10.146Z,21.44
2019-03-13T02:50:36.177Z,21.44
2019-03-13T02:53:02.169Z,21.44
2019-03-13T02:55:28.161Z,21.44
2019-03-13T02:57:54.161Z,21.44
2019-03-13T03:00:20.160Z,21.43
2019-03-13T03:02:46.156Z,21.42
2019-03-13T03:05:12.149Z,21.43
2019-03-13T03:07:38.154Z,21.43
2019-03-13T03:10:04.156Z,21.42
2019-03-13T03:12:30.161Z,21.42
2019-03-13T03:14:56.154Z,21.42
2019-03-13T03:17:22.210Z,21.42
2019-03-13T03:19:48.196Z,21.41
2019-03-13T03:22:14.193Z,21.41
2019-03-13T03:24:40.193Z,21.41
2019-03-13T03:27:06.194Z,21.41
2019-03-13T03:29:32.194Z,21.40
2019-03-13T03:31:58.192Z,21.40
2019-03-13T03:34:24.197Z,21.40
2019-03-13T03:36:50.230Z,21.39
2019-03-13T03:39:16.191Z,21.40
2019-03-13T03:41:42.196Z,21.40
2019-03-13T03:44:08.194Z,21.39
2019-03-13T03:46:34.193Z,21.39
2019-03-13T03:49:00.190Z,21.39
2019-03-13T03:51:26.212Z,21.39
2019-03-13T03:53:52.222Z,21.39
2019-03-13T03:56:18.218Z,21.38
2019-03-13T03:58:44.215Z,21.37
2019-03-13T04:01:10.218Z,21.38
2019-03-13T04:03:36.222Z,21.37
2019-03-13T04:06:02.221Z,21.37
2019-03-13T04:08:28.216Z,21.37
2019-03-13T04:10:54.225Z,21.36
2019-03-13T04:13:20.226Z,21.36
2019-03-13T04:15:46.221Z,21.36
2019-03-13T04:18:12.231Z,21.36
2019-03-13T04:20:38.248Z,21.36
2019-03-13T04:23:04.272Z,21.35
2019-03-13T04:25:30.270Z,21.35
2019-03-13T04:27:56.273Z,21.35
2019-03-13T04:30:22.276Z,21.34
2019-03-13T04:32:48.266Z,21.34
2019-03-13T04:35:14.281Z,21.34
2019-03-13T04:37:40.272Z,21.34
2019-03-13T04:40:06.271Z,21.34
2019-03-13T04:42:32.268Z,21.33
2019-03-13T04:44:58.317Z,21.33
2019-03-13T04:47:25.149Z,21.33
2019-03-13T04:49:50.287Z,21.33
2019-03-13T04:52:16.300Z,21.33
2019-03-13T04:54:42.297Z,21.33
2019-03-13T04:57:08.300Z,21.32
2019-03-13T04:59:34.296Z,21.32
2019-03-13T05:02:00.320Z,21.32
2019-03-13T05:04:26.321Z,21.32
2019-03-13T05:06:52.312Z,21.32
2019-03-13T05:09:18.318Z,21.31
2019-03-13T05:11:44.320Z,21.30
2019-03-13T05:14:10.321Z,21.31
2019-03-13T05:16:36.318Z,21.30
2019-03-13T05:19:02.307Z,21.29
2019-03-13T05:21:28.323Z,21.28
2019-03-13T05:23:54.334Z,21.29
2019-03-13T05:26:20.347Z,21.30
2019-03-13T05:28:46.346Z,21.29
2019-03-13T05:31:12.348Z,21.30
2019-03-13T05:33:38.344Z,21.29
2019-03-13T05:36:04.354Z,21.29
2019-03-13T05:38:30.344Z,21.28
2019-03-13T05:40:56.347Z,21.29
2019-03-13T05:43:22.347Z,21.27
2019-03-13T05:45:48.449Z,21.28
2019-03-13T05:48:14.458Z,21.28
2019-03-13T05:50:40.454Z,21.28
2019-03-13T05:53:06.463Z,21.30
2019-03-13T05:55:32.463Z,21.31
2019-03-13T05:57:58.464Z,21.30
2019-03-13T06:00:24.478Z,21.31
2019-03-13T06:02:50.601Z,21.29
2019-03-13T06:05:16.599Z,21.33
2019-03-13T06:07:42.602Z,21.32
2019-03-13T06:10:08.611Z,21.33
2019-03-13T06:12:34.612Z,21.34
2019-03-13T06:15:03.430Z,21.34
2019-03-13T06:17:26.619Z,21.35
2019-03-13T06:19:52.646Z,21.32
2019-03-13T06:22:18.619Z,21.33
2019-03-13T06:24:44.627Z,21.32
2019-03-13T06:27:10.664Z,21.32
2019-03-13T06:29:36.670Z,21.31
2019-03-13T06:32:02.681Z,21.31
2019-03-13T06:34:28.699Z,21.30
2019-03-13T06:36:54.717Z,21.31
2019-03-13T06:39:20.719Z,21.31
2019-03-13T06:41:46.736Z,21.32
2019-03-13T06:44:12.808Z,21.32
2019-03-13T06:46:38.843Z,21.34
2019-03-13T06:49:04.981Z,21.35
2019-03-13T06:51:30.981Z,21.35
2019-03-13T06:53:56.972Z,21.35
2019-03-13T06:56:22.993Z,21.35
2019-03-13T06:58:48.996Z,21.33
2019-03-13T07:01:14.995Z,21.35
2019-03-13T07:03:40.990Z,21.36
2019-03-13T07:06:07.004Z,21.36
2019-03-13T07:08:33.008Z,21.34
2019-03-13T07:10:59.019Z,21.33
2019-03-13T07:13:25.017Z,21.33
2019-03-13T07:15:51.016Z,21.34
2019-03-13T07:18:17.006Z,21.33
2019-03-13T07:20:43.010Z,21.34
2019-03-13T07:23:09.030Z,21.34
2019-03-13T07:25:35.032Z,21.33
2019-03-13T07:28:01.041Z,21.32
2019-03-13T07:30:27.048Z,21.30
2019-03-13T07:32:56.372Z,21.32
2019-03-13T07:35:19.049Z,21.32
2019-03-13T07:37:45.071Z,21.32
2019-03-13T07:40:11.191Z,21.32
2019-03-13T07:42:41.265Z,21.33
2019-03-13T07:45:07.269Z,21.32
2019-03-13T07:47:33.328Z,21.31
2019-03-13T07:49:59.548Z,21.30
2019-03-13T07:52:28.398Z,21.30
2019-03-13T07:54:54.456Z,21.29
2019-03-13T07:57:20.452Z,21.30
2019-03-13T07:59:46.475Z,21.31
2019-03-13T08:02:12.481Z,21.31
2019-03-13T08:04:38.499Z,21.30
2019-03-13T08:07:04.499Z,21.32
2019-03-13T08:09:30.490Z,21.32
2019-03-13T08:11:56.498Z,21.34
2019-03-13T08:14:22.510Z,21.40
2019-03-13T08:16:48.513Z,21.44
2019-03-13T08:19:14.522Z,21.43
2019-03-13T08:21:40.513Z,21.44
2019-03-13T08:24:06.588Z,21.41
2019-03-13T08:26:32.597Z,21.39
2019-03-13T08:28:58.607Z,21.38
2019-03-13T08:31:24.614Z,21.36
2019-03-13T08:33:50.615Z,21.34
2019-03-13T08:36:16.619Z,21.34
2019-03-13T08:38:42.632Z,21.37
2019-03-13T08:41:08.629Z,21.39
2019-03-13T08:43:34.656Z,21.39
2019-03-13T08:46:00.678Z,21.40
2019-03-13T08:48:26.693Z,21.40
2019-03-13T08:50:52.697Z,21.38
2019-03-13T08:53:18.690Z,21.40
2019-03-13T08:55:44.895Z,21.39
2019-03-13T08:58:10.889Z,21.37
2019-03-13T09:00:36.970Z,21.37
2019-03-13T09:03:02.915Z,21.38
2019-03-13T09:05:28.949Z,21.38
2019-03-13T09:07:54.956Z,21.38
2019-03-13T09:10:22.680Z,21.38
2019-03-13T09:12:46.963Z,21.39
2019-03-13T09:15:12.966Z,21.38
2019-03-13T09:17:38.976Z,21.38
2019-03-13T09:20:04.971Z,21.42
2019-03-13T09:22:31.003Z,21.44
2019-03-13T09:25:10.846Z,21.42
2019-03-13T09:27:23.067Z,21.44
2019-03-13T09:29:49.061Z,21.46
2019-03-13T09:32:15.081Z,21.45
2019-03-13T09:34:41.075Z,21.43
2019-03-13T09:37:07.222Z,21.42
2019-03-13T09:39:33.216Z,21.41
2019-03-13T09:41:59.215Z,21.42
2019-03-13T09:44:25.244Z,21.41
2019-03-13T09:46:51.215Z,21.41
2019-03-13T09:49:19.926Z,21.40
2019-03-13T09:51:45.958Z,21.41
2019-03-13T09:54:11.993Z,21.42
2019-03-13T09:56:37.994Z,21.42
2019-03-13T09:59:03.989Z,21.40
2019-03-13T10:01:29.992Z,21.41
2019-03-13T10:03:55.991Z,21.40
2019-03-13T10:06:22.561Z,21.41
2019-03-13T10:08:47.992Z,21.40
2019-03-13T10:11:14.036Z,21.38
2019-03-13T10:13:40.081Z,21.38
2019-03-13T10:16:06.100Z,21.40
2019-03-13T10:18:32.112Z,21.40
2019-03-13T10:20:58.109Z,21.40
2019-03-13T10:23:24.119Z,21.39
2019-03-13T10:25:50.120Z,21.39
2019-03-13T10:28:16.117Z,21.38
2019-03-13T10:30:42.122Z,21.40
2019-03-13T10:33:08.276Z,21.38
2019-03-13T10:35:34.277Z,21.39
2019-03-13T10:38:12.895Z,21.39
2019-03-13T10:40:26.409Z,21.38
2019-03-13T10:42:52.424Z,21.38
2019-03-13T10:45:18.446Z,21.37
2019-03-13T10:47:44.464Z,21.39
2019-03-13T10:50:10.463Z,21.38
2019-03-13T10:52:36.460Z,21.37
2019-03-13T10:55:02.478Z,21.42
2019-03-13T10:57:28.471Z,21.43
2019-03-13T10:59:54.474Z,21.43
2019-03-13T11:02:20.486Z,21.44
2019-03-13T11:04:46.484Z,21.44
2019-03-13T11:07:12.483Z,21.44
2019-03-13T11:09:38.495Z,21.46
2019-03-13T11:12:04.508Z,21.46
2019-03-13T11:14:30.503Z,21.47
2019-03-13T11:16:56.499Z,21.46
2019-03-13T11:19:22.535Z,21.47
2019-03-13T11:21:48.524Z,21.48
2019-03-13T11:24:14.532Z,21.48
2019-03-13T11:26:40.528Z,21.47
2019-03-13T11:29:06.707Z,21.47
2019-03-13T11:31:32.704Z,21.48
2019-03-13T11:33:58.723Z,21.47
2019-03-13T11:36:24.737Z,21.48
2019-03-13T11:38:50.735Z,21.49
2019-03-13T11:41:16.737Z,21.49
2019-03-13T11:43:42.747Z,21.49
2019-03-13T11:46:08.752Z,21.50
2019-03-13T11:48:34.751Z,21.48
2019-03-13T11:51:00.759Z,21.49
2019-03-13T11:53:27.157Z,21.49
2019-03-13T11:55:53.156Z,21.50
2019-03-13T11:58:31.398Z,21.51
2019-03-13T12:00:57.429Z,21.50
2019-03-13T12:03:23.457Z,21.50
2019-03-13T12:05:49.470Z,21.50
2019-03-13T12:08:15.477Z,21.48
2019-03-13T12:10:41.472Z,21.46
2019-03-13T12:13:10.353Z,21.46
2019-03-13T12:15:33.496Z,21.47
2019-03-13T12:17:59.510Z,21.47
2019-03-13T12:20:25.509Z,21.48
2019-03-13T12:22:51.540Z,21.49
2019-03-13T12:25:17.550Z,21.48
2019-03-13T12:27:43.549Z,21.47
2019-03-13T12:30:09.558Z,21.46
2019-03-13T12:32:35.582Z,21.47
2019-03-13T12:35:01.621Z,21.51
2019-03-13T12:37:27.621Z,21.52
2019-03-13T12:39:53.616Z,21.52
2019-03-13T12:42:19.616Z,21.53
2019-03-13T12:44:45.607Z,21.57
2019-03-13T12:47:11.620Z,21.56
2019-03-13T12:49:37.624Z,21.56
2019-03-13T12:52:03.671Z,21.56
2019-03-13T12:54:29.672Z,21.57
2019-03-13T12:56:55.671Z,21.57
2019-03-13T12:59:21.713Z,21.55
2019-03-13T13:01:47.705Z,21.53
2019-03-13T13:04:13.705Z,21.51
2019-03-13T13:06:39.704Z,21.50
2019-03-13T13:09:05.719Z,21.49
2019-03-13T13:11:31.731Z,21.49
2019-03-13T13:13:57.739Z,21.51
2019-03-13T13:16:23.723Z,21.52
2019-03-13T13:18:49.736Z,21.50
2019-03-13T13:21:15.726Z,21.49
2019-03-13T13:23:41.733Z,21.49
2019-03-13T13:26:07.807Z,21.48
2019-03-13T13:28:33.747Z,21.50
2019-03-13T13:30:59.757Z,21.47
2019-03-13T13:33:25.752Z,21.50
2019-03-13T13:35:51.752Z,21.50
2019-03-13T13:38:17.774Z,21.51
2019-03-13T13:40:44.003Z,21.51
2019-03-13T13:43:10.004Z,21.53
2019-03-13T13:45:36.196Z,21.54
2019-03-13T13:48:02.195Z,21.52
2019-03-13T13:50:28.197Z,21.54
2019-03-13T13:52:54.191Z,21.55
2019-03-13T13:55:20.188Z,21.53
2019-03-13T13:57:46.199Z,21.53
2019-03-13T14:00:12.198Z,21.54
2019-03-13T14:02:38.201Z,21.53
2019-03-13T14:05:04.199Z,21.52
2019-03-13T14:07:30.239Z,21.50
2019-03-13T14:09:56.258Z,21.49
2019-03-13T14:12:22.251Z,21.49
2019-03-13T14:14:48.251Z,21.49
2019-03-13T14:17:14.263Z,21.49
2019-03-13T14:19:40.266Z,21.50
2019-03-13T14:22:06.260Z,21.48
2019-03-13T14:24:32.261Z,21.48
2019-03-13T14:26:58.260Z,21.46
2019-03-13T14:29:24.259Z,21.46
2019-03-13T14:31:50.265Z,21.45
2019-03-13T14:34:16.300Z,21.46
2019-03-13T14:36:42.308Z,21.48
2019-03-13T14:39:08.320Z,21.49
2019-03-13T14:41:34.302Z,21.51
2019-03-13T14:44:00.314Z,21.51
2019-03-13T14:46:26.318Z,21.48
2019-03-13T14:48:52.334Z,21.47
2019-03-13T14:51:18.387Z,21.47
2019-03-13T14:53:44.331Z,21.45
2019-03-13T14:56:10.355Z,21.46
2019-03-13T14:58:36.351Z,21.46
2019-03-13T15:01:02.347Z,21.44
2019-03-13T15:03:28.352Z,21.45
2019-03-13T15:05:54.348Z,21.46
2019-03-13T15:08:20.348Z,21.46
2019-03-13T15:10:46.344Z,21.45
2019-03-13T15:13:12.345Z,21.46
2019-03-13T15:15:38.348Z,21.47
2019-03-13T15:18:04.351Z,21.45
2019-03-13T15:20:30.363Z,21.46
2019-03-13T15:22:56.359Z,21.47
2019-03-13T15:25:22.359Z,21.47
2019-03-13T15:27:48.358Z,21.45
2019-03-13T15:30:14.358Z,21.46
2019-03-13T15:32:40.387Z,21.44
2019-03-13T15:35:06.421Z,21.46
2019-03-13T15:37:32.414Z,21.47
2019-03-13T15:39:58.439Z,21.45
2019-03-13T15:42:24.449Z,21.47
2019-03-13T15:44:50.445Z,21.47
2019-03-13T15:47:16.443Z,21.47
2019-03-13T15:49:42.451Z,21.47
2019-03-13T15:52:08.460Z,21.46
2019-03-13T15:54:34.532Z,21.46
2019-03-13T15:57:00.497Z,21.46
2019-03-13T15:59:26.509Z,21.47
2019-03-13T16:01:52.510Z,21.45
2019-03-13T16:04:18.593Z,21.45
2019-03-13T16:06:44.690Z,21.44
2019-03-13T16:09:10.615Z,21.43
2019-03-13T16:11:36.613Z,21.45
2019-03-13T16:14:02.618Z,21.42
2019-03-13T16:16:28.613Z,21.42
2019-03-13T16:18:54.634Z,21.40
2019-03-13T16:21:20.614Z,21.39
2019-03-13T16:23:46.620Z,21.40
2019-03-13T16:26:12.615Z,21.41
2019-03-13T16:28:38.621Z,21.39
2019-03-13T16:31:04.636Z,21.41
2019-03-13T16:33:30.647Z,21.39
2019-03-13T16:35:56.718Z,21.40
2019-03-13T16:38:22.722Z,21.39
2019-03-13T16:40:48.723Z,21.39
2019-03-13T16:43:14.719Z,21.38
2019-03-13T16:45:40.719Z,21.37
2019-03-13T16:48:06.715Z,21.36
2019-03-13T16:50:32.712Z,21.36
2019-03-13T16:52:58.713Z,21.35
2019-03-13T16:55:24.723Z,21.36
2019-03-13T16:57:50.727Z,21.35
2019-03-13T17:00:16.714Z,21.35
2019-03-13T17:02:42.747Z,21.34
2019-03-13T17:05:08.752Z,21.34
2019-03-13T17:07:34.758Z,21.33
2019-03-13T17:10:00.763Z,21.33
2019-03-13T17:12:26.778Z,21.34
2019-03-13T17:14:52.788Z,21.35
2019-03-13T17:17:18.784Z,21.36
2019-03-13T17:19:44.790Z,21.35
2019-03-13T17:22:10.793Z,21.36
2019-03-13T17:24:36.869Z,21.36
2019-03-13T17:27:02.873Z,21.37
2019-03-13T17:29:28.891Z,21.37
2019-03-13T17:31:54.897Z,21.37
2019-03-13T17:34:20.963Z,21.35
2019-03-13T17:36:46.983Z,21.35
2019-03-13T17:39:12.982Z,21.33
2019-03-13T17:41:38.980Z,21.35
2019-03-13T17:44:04.998Z,21.34
2019-03-13T17:46:31.080Z,21.36
2019-03-13T17:48:57.079Z,21.36
2019-03-13T17:51:23.070Z,21.36
2019-03-13T17:53:49.085Z,21.36
2019-03-13T17:56:15.085Z,21.37
2019-03-13T17:58:41.105Z,21.36
2019-03-13T18:01:07.604Z,21.37
2019-03-13T18:03:33.604Z,21.36
2019-03-13T18:06:00.169Z,21.36
2019-03-13T18:08:26.706Z,21.37
2019-03-13T18:10:52.728Z,21.37
2019-03-13T18:13:18.743Z,21.39
2019-03-13T18:15:44.750Z,21.39
2019-03-13T18:18:10.744Z,21.38
2019-03-13T18:20:36.744Z,21.39
2019-03-13T18:23:02.749Z,21.39
2019-03-13T18:25:28.780Z,21.36
2019-03-13T18:27:54.785Z,21.35
2019-03-13T18:30:20.785Z,21.38
2019-03-13T18:32:46.788Z,21.42
2019-03-13T18:35:12.790Z,21.39
2019-03-13T18:37:38.844Z,21.37
2019-03-13T18:40:04.835Z,21.38
2019-03-13T18:42:30.855Z,21.37
2019-03-13T18:44:56.856Z,21.38
2019-03-13T18:47:22.927Z,21.40
2019-03-13T18:49:48.923Z,21.41
2019-03-13T18:52:14.953Z,21.41
2019-03-13T18:54:41.003Z,21.41
2019-03-13T18:57:06.996Z,21.40
2019-03-13T18:59:33.126Z,21.41
2019-03-13T19:01:58.995Z,21.43
2019-03-13T19:04:25.006Z,21.45
2019-03-13T19:06:51.008Z,21.45
2019-03-13T19:09:17.016Z,21.44
2019-03-13T19:11:43.044Z,21.43
2019-03-13T19:14:09.096Z,21.44
2019-03-13T19:16:35.272Z,21.46
2019-03-13T19:19:01.170Z,21.48
2019-03-13T19:21:27.180Z,21.46
2019-03-13T19:23:53.172Z,21.45
2019-03-13T19:26:19.194Z,21.44
2019-03-13T19:28:45.189Z,21.45
2019-03-13T19:31:11.190Z,21.49
2019-03-13T19:33:37.192Z,21.46
2019-03-13T19:36:03.188Z,21.44
2019-03-13T19:38:29.194Z,21.43
2019-03-13T19:40:55.187Z,21.41
2019-03-13T19:43:21.199Z,21.40
2019-03-13T19:45:47.201Z,21.39
2019-03-13T19:48:13.296Z,21.41
2019-03-13T19:50:41.832Z,21.40
2019-03-13T19:53:07.832Z,21.41
2019-03-13T19:55:33.842Z,21.44
2019-03-13T19:58:04.777Z,21.46
2019-03-13T20:00:31.738Z,21.48
2019-03-13T20:03:00.439Z,21.48
2019-03-13T20:05:23.717Z,21.48
2019-03-13T20:07:49.809Z,21.48
2019-03-13T20:10:15.721Z,21.49
2019-03-13T20:12:41.723Z,21.50
2019-03-13T20:15:07.721Z,21.48
2019-03-13T20:17:33.749Z,21.47
2019-03-13T20:19:59.747Z,21.49
2019-03-13T20:22:25.744Z,21.48
2019-03-13T20:24:51.768Z,21.50
2019-03-13T20:27:17.744Z,21.49
2019-03-13T20:29:43.744Z,21.49
2019-03-13T20:32:09.748Z,21.51
2019-03-13T20:34:35.821Z,21.49
2019-03-13T20:37:01.871Z,21.49
2019-03-13T20:39:27.887Z,21.50
2019-03-13T20:41:54.457Z,21.49
2019-03-13T20:44:19.887Z,21.50
2019-03-13T20:46:45.921Z,21.51
2019-03-13T20:49:11.917Z,21.50
2019-03-13T20:51:37.916Z,21.50
2019-03-13T20:54:03.927Z,21.51
2019-03-13T20:56:29.965Z,21.51
2019-03-13T20:58:55.960Z,21.50
2019-03-13T21:01:21.960Z,21.50
2019-03-13T21:03:48.050Z,21.51
2019-03-13T21:06:13.965Z,21.51
2019-03-13T21:08:40.164Z,21.52
2019-03-13T21:11:06.164Z,21.50
2019-03-13T21:13:32.192Z,21.51
2019-03-13T21:15:58.191Z,21.52
2019-03-13T21:18:24.191Z,21.51
2019-03-13T21:20:50.194Z,21.51
2019-03-13T21:23:16.265Z,21.49
2019-03-13T21:25:42.308Z,21.49
2019-03-13T21:28:08.305Z,21.48
2019-03-13T21:30:34.315Z,21.47
2019-03-13T21:33:00.313Z,21.47
2019-03-13T21:35:26.309Z,21.44
2019-03-13T21:37:52.307Z,21.45
2019-03-13T21:40:18.305Z,21.45
2019-03-13T21:42:44.323Z,21.45
2019-03-13T21:45:21.800Z,21.44
2019-03-13T21:47:36.316Z,21.44
2019-03-13T21:50:02.553Z,21.43
2019-03-13T21:52:28.320Z,21.44
2019-03-13T21:54:54.326Z,21.42
2019-03-13T21:57:20.317Z,21.42
2019-03-13T21:59:46.339Z,21.42
2019-03-13T22:02:12.565Z,21.41
2019-03-13T22:04:38.332Z,21.41
2019-03-13T22:07:04.339Z,21.40
2019-03-13T22:09:30.339Z,21.39
2019-03-13T22:11:56.338Z,21.40
2019-03-13T22:14:22.330Z,21.38
2019-03-13T22:16:48.437Z,21.38
2019-03-13T22:19:14.352Z,21.38
2019-03-13T22:21:40.347Z,21.37
2019-03-13T22:24:06.347Z,21.37
2019-03-13T22:26:32.342Z,21.38
2019-03-13T22:28:58.343Z,21.36
2019-03-13T22:31:24.343Z,21.36
2019-03-13T22:33:50.367Z,21.35
2019-03-13T22:36:16.363Z,21.35
2019-03-13T22:38:42.354Z,21.34
2019-03-13T22:41:08.368Z,21.35
2019-03-13T22:43:34.644Z,21.35
2019-03-13T22:46:00.401Z,21.34
2019-03-13T22:48:26.394Z,21.34
2019-03-13T22:50:52.390Z,21.34
2019-03-13T22:53:18.388Z,21.35
2019-03-13T22:55:44.390Z,21.34
2019-03-13T22:58:10.399Z,21.33
2019-03-13T23:00:36.400Z,21.33
2019-03-13T23:03:02.436Z,21.33
2019-03-13T23:05:28.438Z,21.33
2019-03-13T23:07:54.473Z,21.31
2019-03-13T23:10:20.432Z,21.31
2019-03-13T23:12:46.432Z,21.32
2019-03-13T23:15:12.438Z,21.31
2019-03-13T23:17:38.451Z,21.30
2019-03-13T23:20:04.450Z,21.29
2019-03-13T23:22:30.443Z,21.30
2019-03-13T23:24:56.469Z,21.28
2019-03-13T23:27:22.463Z,21.28
2019-03-13T23:29:48.459Z,21.28
2019-03-13T23:32:14.461Z,21.28
2019-03-13T23:34:40.464Z,21.29
2019-03-13T23:37:06.464Z,21.29
2019-03-13T23:39:32.467Z,21.27
2019-03-13T23:41:58.474Z,21.27
2019-03-13T23:44:24.468Z,21.28
2019-03-13T23:46:50.488Z,21.28
2019-03-13T23:49:16.481Z,21.28
2019-03-13T23:51:42.481Z,21.28
2019-03-13T23:54:08.485Z,21.27
2019-03-13T23:56:34.482Z,21.28
2019-03-13T23:59:00.488Z,21.27
